createdAt,value
2022-09-13T00:02:03.616Z,12.43
2022-09-13T00:04:43.677Z,12.10
2022-09-13T00:07:17.625Z,11.51
2022-09-13T00:09:47.585Z,11.44
2022-09-13T00:12:23.289Z,11.69
2022-09-13T00:14:59.286Z,12.06
2022-09-13T00:17:30.795Z,11.87
2022-09-13T00:20:06.009Z,12.38
2022-09-13T00:22:42.441Z,12.57
2022-09-13T00:25:16.257Z,11.43
2022-09-13T00:27:47.537Z,11.82
2022-09-13T00:30:21.464Z,12.33
2022-09-13T00:32:53.671Z,11.78
2022-09-13T00:35:25.411Z,11.73
2022-09-13T00:37:56.317Z,11.98
2022-09-13T00:40:27.077Z,12.25
2022-09-13T00:42:57.387Z,11.74
2022-09-13T00:45:29.390Z,12.23
2022-09-13T00:48:07.955Z,12.71
2022-09-13T00:50:53.963Z,12.26
2022-09-13T00:53:41.880Z,12.18
2022-09-13T00:56:49.919Z,12.20
2022-09-13T00:59:28.243Z,12.21
2022-09-13T01:02:05.822Z,12.51
2022-09-13T01:04:45.229Z,12.44
2022-09-13T01:07:19.629Z,11.98
2022-09-13T01:09:56.978Z,12.20
2022-09-13T01:12:43.341Z,12.28
2022-09-13T01:15:58.018Z,12.85
2022-09-13T01:35:06.161Z,12.38
2022-09-13T01:43:30.447Z,12.20
2022-09-13T01:47:15.458Z,12.23
2022-09-13T01:50:55.771Z,13.40
2022-09-13T01:54:23.695Z,12.78
2022-09-13T02:03:23.691Z,13.20
2022-09-13T02:11:59.961Z,12.48
2022-09-13T02:16:20.422Z,12.53
2022-09-13T03:34:50.350Z,12.74
2022-09-13T04:03:13.663Z,13.71
2022-09-13T04:07:12.290Z,13.30
2022-09-13T04:10:44.103Z,13.35
2022-09-13T04:13:58.399Z,12.71
2022-09-13T04:16:49.921Z,12.73
2022-09-13T04:19:55.177Z,12.98
2022-09-13T04:22:41.449Z,14.45
2022-09-13T04:25:24.310Z,14.41
2022-09-13T04:28:36.080Z,13.88
2022-09-13T04:31:34.809Z,14.48
2022-09-13T04:38:18.048Z,13.91
2022-09-13T04:41:40.808Z,13.34
2022-09-13T04:44:48.188Z,14.28
2022-09-13T04:47:35.513Z,13.87
2022-09-13T04:50:51.649Z,13.91
2022-09-13T04:54:02.620Z,13.76
2022-09-13T04:59:53.388Z,14.42
2022-09-13T05:05:34.331Z,14.83
2022-09-13T05:08:25.709Z,14.53
2022-09-13T05:11:06.298Z,14.54
2022-09-13T05:14:04.054Z,13.97
2022-09-13T05:17:13.755Z,13.54
2022-09-13T05:19:51.827Z,13.88
2022-09-13T05:22:32.920Z,14.60
2022-09-13T05:25:11.782Z,14.34
2022-09-13T05:27:51.251Z,13.76
2022-09-13T05:30:26.091Z,14.37
2022-09-13T05:33:00.642Z,13.84
2022-09-13T05:35:38.347Z,14.15
2022-09-13T05:38:14.376Z,14.34
2022-09-13T05:41:02.296Z,14.16
2022-09-13T05:43:36.013Z,14.02
2022-09-13T05:46:24.038Z,14.27
2022-09-13T05:49:09.661Z,14.56
2022-09-13T05:51:53.948Z,14.35
2022-09-13T05:54:28.696Z,14.05
2022-09-13T05:57:06.025Z,14.36
2022-09-13T05:59:46.402Z,14.45
2022-09-13T06:02:20.537Z,13.88
2022-09-13T06:04:55.770Z,13.93
2022-09-13T06:08:26.139Z,12.57
2022-09-13T06:40:45.095Z,13.90
2022-09-13T06:50:42.498Z,13.53
2022-09-13T07:00:28.275Z,13.87
2022-09-13T07:22:58.290Z,14.24
2022-09-13T07:41:58.291Z,13.51
2022-09-13T07:44:35.572Z,14.18
2022-09-13T07:47:24.144Z,14.84
2022-09-13T07:49:58.122Z,14.29
2022-09-13T07:52:32.891Z,14.49
2022-09-13T07:55:03.683Z,14.44
2022-09-13T07:57:35.376Z,14.79
2022-09-13T08:00:10.012Z,14.89
2022-09-13T08:03:36.117Z,15.30
2022-09-13T08:06:18.239Z,15.28
2022-09-13T08:08:47.995Z,15.74
2022-09-13T08:11:35.514Z,16.15
2022-09-13T08:14:27.714Z,16.03
2022-09-13T08:17:51.211Z,14.61
2022-09-13T08:20:28.203Z,15.11
2022-09-13T08:23:08.005Z,14.61
2022-09-13T08:26:03.625Z,14.81
2022-09-13T08:30:00.536Z,15.36
2022-09-13T08:46:11.827Z,14.40
2022-09-13T08:54:18.662Z,14.48
2022-09-13T08:58:22.833Z,14.94
2022-09-13T09:05:22.790Z,14.46
2022-09-13T09:08:26.970Z,14.58
2022-09-13T09:11:51.238Z,14.76
2022-09-13T09:15:04.707Z,15.02
2022-09-13T09:21:31.606Z,14.71
2022-09-13T09:24:20.206Z,14.79
2022-09-13T09:27:04.454Z,14.78
2022-09-13T09:29:59.022Z,14.59
2022-09-13T09:33:02.584Z,14.54
2022-09-13T09:35:51.268Z,14.13
2022-09-13T09:38:46.275Z,14.25
2022-09-13T09:42:01.982Z,12.36
2022-09-13T09:44:36.027Z,13.35
2022-09-13T09:48:06.699Z,13.44
2022-09-13T09:50:56.160Z,13.26
2022-09-13T09:54:04.668Z,13.25
2022-09-13T09:57:20.139Z,12.94
2022-09-13T10:00:24.711Z,13.48
2022-09-13T10:03:46.094Z,13.19
2022-09-13T10:06:31.993Z,13.73
2022-09-13T10:09:20.249Z,14.56
2022-09-13T10:16:12.190Z,14.79
2022-09-13T10:18:46.005Z,14.18
2022-09-13T10:21:44.332Z,14.85
2022-09-13T10:24:28.721Z,14.39
2022-09-13T10:27:24.680Z,14.64
2022-09-13T10:30:22.962Z,13.45
2022-09-13T10:33:43.290Z,12.78
2022-09-13T10:36:48.235Z,13.53
2022-09-13T10:39:30.529Z,13.33
2022-09-13T10:45:28.701Z,13.89
2022-09-13T10:48:35.752Z,14.52
2022-09-13T10:51:34.954Z,14.49
2022-09-13T10:54:31.520Z,14.33
2022-09-13T10:57:04.191Z,13.96
2022-09-13T11:01:19.260Z,14.81
2022-09-13T11:04:50.008Z,14.03
2022-09-13T11:08:46.181Z,13.40
2022-09-13T11:11:28.042Z,14.30
2022-09-13T11:15:15.621Z,13.60
2022-09-13T11:18:43.210Z,13.62
2022-09-13T11:21:52.020Z,15.00
2022-09-13T11:24:43.311Z,14.60
2022-09-13T11:27:50.821Z,14.72
2022-09-13T11:31:22.947Z,14.66
2022-09-13T11:34:46.665Z,14.04
2022-09-13T11:37:58.692Z,13.93
2022-09-13T11:41:52.144Z,13.40
2022-09-13T11:44:58.310Z,14.55
2022-09-13T11:48:32.699Z,14.96
2022-09-13T11:51:47.190Z,14.42
2022-09-13T11:55:00.280Z,13.67
2022-09-13T11:58:59.976Z,12.88
2022-09-13T12:02:21.825Z,12.92
2022-09-13T12:05:35.368Z,13.48
2022-09-13T12:08:20.836Z,13.31
2022-09-13T12:12:15.475Z,13.11
2022-09-13T12:15:51.190Z,12.90
2022-09-13T12:18:58.591Z,12.76
2022-09-13T12:21:59.654Z,12.41
2022-09-13T14:06:05.433Z,11.47
2022-09-13T14:09:33.383Z,12.74
2022-09-13T14:12:35.887Z,14.00
2022-09-13T14:16:19.620Z,13.31
2022-09-13T14:19:13.108Z,13.41
2022-09-13T14:22:23.849Z,13.21
2022-09-13T14:34:44.407Z,13.06
2022-09-13T14:42:51.163Z,12.51
2022-09-13T14:45:51.197Z,12.80
2022-09-13T14:48:33.970Z,13.10
2022-09-13T14:52:11.714Z,12.42
2022-09-13T14:54:54.301Z,13.18
2022-09-13T14:57:36.211Z,13.11
2022-09-13T15:00:24.989Z,13.27
2022-09-13T15:03:12.266Z,13.02
2022-09-13T15:05:58.067Z,12.67
2022-09-13T15:08:46.575Z,12.71
2022-09-13T15:11:35.372Z,12.79
2022-09-13T15:14:48.205Z,11.54
2022-09-13T15:17:56.950Z,12.36
2022-09-13T15:20:52.471Z,12.93
2022-09-13T15:23:30.372Z,13.05
2022-09-13T15:26:11.488Z,12.73
2022-09-13T15:28:51.456Z,12.28
2022-09-13T15:31:30.043Z,13.15
2022-09-13T15:34:24.557Z,12.27
2022-09-13T15:37:09.894Z,12.55
2022-09-13T15:40:23.926Z,12.07
2022-09-13T15:42:56.241Z,12.92
2022-09-13T15:45:28.928Z,12.65
2022-09-13T15:47:59.378Z,12.43
2022-09-13T15:50:46.940Z,12.86
2022-09-13T15:53:16.356Z,12.49
2022-09-13T15:55:46.996Z,12.68
2022-09-13T15:58:15.238Z,13.22
2022-09-13T16:00:45.993Z,12.83
2022-09-13T16:03:16.719Z,12.92
2022-09-13T16:05:47.872Z,12.73
2022-09-13T16:08:19.250Z,12.55
2022-09-13T16:10:52.391Z,11.91
2022-09-13T16:13:24.296Z,12.74
2022-09-13T16:16:01.211Z,12.22
2022-09-13T16:18:33.266Z,12.66
2022-09-13T16:21:04.278Z,12.11
2022-09-13T16:23:44.116Z,11.92
2022-09-13T16:26:16.139Z,12.21
2022-09-13T16:28:56.117Z,11.90
2022-09-13T16:31:27.102Z,11.98
2022-09-13T16:33:56.744Z,12.47
2022-09-13T16:36:30.441Z,12.52
2022-09-13T16:39:02.412Z,12.23
2022-09-13T16:41:34.126Z,11.87
2022-09-13T16:44:06.374Z,12.11
2022-09-13T16:46:42.471Z,11.92
2022-09-13T16:49:12.446Z,11.87
2022-09-13T16:51:43.639Z,11.70
2022-09-13T16:54:15.279Z,12.07
2022-09-13T16:56:46.738Z,11.62
2022-09-13T16:59:18.255Z,11.24
2022-09-13T17:01:51.566Z,11.44
2022-09-13T17:04:23.643Z,11.96
2022-09-13T17:06:59.331Z,11.61
2022-09-13T17:09:29.893Z,11.78
2022-09-13T17:12:03.741Z,10.95
2022-09-13T17:15:00.220Z,10.12
2022-09-13T17:17:47.173Z,11.76
2022-09-13T17:20:15.769Z,9.25
2022-09-13T17:23:56.583Z,10.35
2022-09-13T17:26:50.634Z,11.98
2022-09-13T17:41:34.734Z,12.03
2022-09-13T17:44:11.639Z,11.65
2022-09-13T17:51:18.902Z,11.21
2022-09-13T17:53:59.811Z,11.75
2022-09-13T17:56:36.467Z,12.06
2022-09-13T17:59:18.195Z,11.51
2022-09-13T18:01:51.449Z,11.83
2022-09-13T18:04:26.678Z,12.04
2022-09-13T18:06:57.778Z,11.94
2022-09-13T18:09:55.194Z,12.21
2022-09-13T18:13:06.331Z,10.76
2022-09-13T18:20:25.425Z,11.35
2022-09-13T18:24:23.408Z,11.27
2022-09-13T18:27:23.799Z,11.25
2022-09-13T18:30:10.352Z,11.24
2022-09-13T18:33:13.007Z,11.66
2022-09-13T18:35:43.692Z,12.01
2022-09-13T18:38:15.245Z,11.54
2022-09-13T18:40:46.801Z,11.87
2022-09-13T18:43:18.459Z,10.13
2022-09-13T18:45:55.750Z,11.20
2022-09-13T18:48:39.913Z,11.08
2022-09-13T18:51:14.407Z,11.75
2022-09-13T18:53:44.910Z,12.02
2022-09-13T18:56:18.362Z,11.82
2022-09-13T18:58:50.171Z,11.68
2022-09-13T19:01:35.502Z,11.36
2022-09-13T19:04:16.101Z,11.80
2022-09-13T19:06:53.022Z,11.20
2022-09-13T19:09:26.988Z,12.04
2022-09-13T19:15:22.316Z,10.72
2022-09-13T19:17:58.205Z,11.21
2022-09-13T19:20:30.479Z,10.99
2022-09-13T19:23:03.061Z,10.65
2022-09-13T19:25:36.583Z,10.76
2022-09-13T19:28:15.996Z,10.52
2022-09-13T19:30:51.769Z,11.15
2022-09-13T19:33:22.487Z,10.88
2022-09-13T19:36:22.545Z,11.46
2022-09-13T19:39:00.099Z,11.36
2022-09-13T19:41:57.824Z,10.78
2022-09-13T19:44:30.384Z,10.47
2022-09-13T19:48:25.853Z,11.10
2022-09-13T19:50:18.665Z,10.97
2022-09-13T19:52:51.725Z,10.70
2022-09-13T19:55:23.849Z,10.51
2022-09-13T19:57:59.875Z,11.02
2022-09-13T20:00:34.820Z,11.28
2022-09-13T20:03:12.477Z,10.83
2022-09-13T20:06:19.632Z,10.99
2022-09-13T20:08:53.934Z,11.12
2022-09-13T20:11:29.038Z,11.28
2022-09-13T20:14:02.372Z,10.80
2022-09-13T20:16:42.348Z,11.25
2022-09-13T20:22:14.847Z,10.84
2022-09-13T20:24:46.346Z,11.01
2022-09-13T20:27:16.667Z,11.43
2022-09-13T20:30:22.269Z,10.73
2022-09-13T20:39:14.879Z,10.44
2022-09-13T20:41:46.812Z,10.35
2022-09-13T20:44:16.190Z,10.35
2022-09-13T20:46:48.048Z,10.85
2022-09-13T20:49:20.354Z,11.03
2022-09-13T20:51:51.845Z,10.90
2022-09-13T20:54:21.995Z,10.86
2022-09-13T20:56:59.567Z,10.30
2022-09-13T20:59:30.062Z,10.63
2022-09-13T21:02:00.659Z,11.27
2022-09-13T21:04:31.343Z,10.90
2022-09-13T21:07:20.131Z,11.23
2022-09-13T21:10:02.879Z,11.03
2022-09-13T21:12:34.140Z,11.42
2022-09-13T21:15:10.896Z,11.52
2022-09-13T21:17:46.332Z,11.28
2022-09-13T21:20:16.989Z,11.00
2022-09-13T21:22:48.709Z,11.60
2022-09-13T21:25:20.279Z,11.66
2022-09-13T21:27:52.474Z,10.80
2022-09-13T21:30:27.033Z,11.15
2022-09-13T21:32:58.506Z,11.20
2022-09-13T21:35:35.185Z,11.25
2022-09-13T21:38:12.664Z,11.97
2022-09-13T21:40:47.213Z,11.29
2022-09-13T21:43:18.741Z,10.96
2022-09-13T21:45:48.500Z,11.53
2022-09-13T21:48:27.053Z,11.69
2022-09-13T21:51:15.751Z,10.68
2022-09-13T21:53:56.172Z,10.83
2022-09-13T21:56:34.324Z,11.43
2022-09-13T21:59:19.475Z,10.60
2022-09-13T22:01:53.569Z,11.56
2022-09-13T22:04:30.116Z,11.22
2022-09-13T22:07:00.457Z,11.22
2022-09-13T22:09:34.413Z,11.26
2022-09-13T22:12:07.103Z,11.74
2022-09-13T22:14:42.380Z,11.78
2022-09-13T22:17:12.335Z,11.55
2022-09-13T22:19:42.752Z,11.89
2022-09-13T22:22:12.676Z,12.15
2022-09-13T22:24:47.643Z,11.61
2022-09-13T22:27:18.623Z,12.01
2022-09-13T22:29:48.646Z,11.45
2022-09-13T22:32:23.252Z,11.95
2022-09-13T22:34:58.573Z,12.20
2022-09-13T22:37:48.092Z,11.81
2022-09-13T22:40:24.325Z,12.08
2022-09-13T22:42:58.403Z,12.24
2022-09-13T22:45:30.144Z,12.00
2022-09-13T22:48:00.428Z,11.75
2022-09-13T22:56:49.997Z,11.51
2022-09-13T23:12:17.298Z,11.88
2022-09-13T23:15:36.000Z,12.08
2022-09-13T23:18:35.305Z,12.07
2022-09-13T23:21:46.235Z,12.64
2022-09-13T23:27:47.614Z,12.62
2022-09-13T23:30:29.265Z,12.51
2022-09-13T23:33:13.573Z,12.68
2022-09-13T23:36:00.515Z,12.74
2022-09-13T23:39:05.101Z,12.86
2022-09-13T23:41:54.340Z,12.62
2022-09-13T23:44:47.073Z,12.90
2022-09-13T23:47:19.939Z,12.72
2022-09-13T23:49:59.261Z,12.71
2022-09-13T23:52:35.899Z,13.13
2022-09-13T23:55:15.761Z,12.93
2022-09-13T23:57:50.739Z,12.72
